createdAt,value
2018-07-01T00:00:03.057Z,2.20
2018-07-01T00:00:36.723Z,3.12
2018-07-01T00:01:10.036Z,3.15
2018-07-01T00:01:43.204Z,3.20
2018-07-01T00:02:16.909Z,2.33
2018-07-01T00:02:50.174Z,2.20
2018-07-01T00:03:23.874Z,2.00
2018-07-01T00:03:57.129Z,2.15
2018-07-01T00:04:30.222Z,2.12
2018-07-01T00:05:03.512Z,2.08
2018-07-01T00:05:36.612Z,2.27
2018-07-01T00:06:09.754Z,2.20
2018-07-01T00:06:42.858Z,2.10
2018-07-01T00:07:16.146Z,1.85
2018-07-01T00:07:49.289Z,1.82
2018-07-01T00:08:22.376Z,1.95
2018-07-01T00:08:55.481Z,1.67
2018-07-01T00:09:29.040Z,2.17
2018-07-01T00:10:02.177Z,1.95
2018-07-01T00:10:35.344Z,2.10
2018-07-01T00:11:08.455Z,2.10
2018-07-01T00:11:42.158Z,2.25
2018-07-01T00:12:15.436Z,2.20
2018-07-01T00:12:48.543Z,1.40
2018-07-01T00:13:21.640Z,2.30
2018-07-01T00:13:54.787Z,2.20
2018-07-01T00:14:27.980Z,2.20
2018-07-01T00:15:01.127Z,2.50
2018-07-01T00:15:34.969Z,2.52
2018-07-01T00:16:08.095Z,2.30
2018-07-01T00:16:41.203Z,2.83
2018-07-01T00:17:14.299Z,2.27
2018-07-01T00:17:47.525Z,2.10
2018-07-01T00:18:20.590Z,2.42
2018-07-01T00:18:53.891Z,2.20
2018-07-01T00:19:27.289Z,2.50
2018-07-01T00:20:00.840Z,2.30
2018-07-01T00:20:34.034Z,2.55
2018-07-01T00:21:07.194Z,2.37
2018-07-01T00:21:40.348Z,2.50
2018-07-01T00:22:13.472Z,2.42
2018-07-01T00:22:46.585Z,2.20
2018-07-01T00:23:19.665Z,2.20
2018-07-01T00:23:52.777Z,2.00
2018-07-01T00:24:25.911Z,2.35
2018-07-01T00:24:59.146Z,1.90
2018-07-01T00:25:32.359Z,1.87
2018-07-01T00:26:05.462Z,1.82
2018-07-01T00:26:39.037Z,1.90
2018-07-01T00:27:12.282Z,2.15
2018-07-01T00:27:45.378Z,1.80
2018-07-01T00:28:18.518Z,2.20
2018-07-01T00:28:51.662Z,2.70
2018-07-01T00:29:24.861Z,2.60
2018-07-01T00:29:58.057Z,3.00
2018-07-01T00:30:31.132Z,2.60
2018-07-01T00:31:04.309Z,2.70
2018-07-01T00:31:37.386Z,2.45
2018-07-01T00:32:10.479Z,2.52
2018-07-01T00:32:43.634Z,2.30
2018-07-01T00:33:16.953Z,2.58
2018-07-01T00:33:50.076Z,2.27
2018-07-01T00:34:23.207Z,2.10
2018-07-01T00:34:56.280Z,1.98
2018-07-01T00:35:29.371Z,2.27
2018-07-01T00:36:02.732Z,1.80
2018-07-01T00:36:35.846Z,1.90
2018-07-01T00:37:08.931Z,1.60
2018-07-01T00:37:42.020Z,1.90
2018-07-01T00:38:15.135Z,1.90
2018-07-01T00:38:48.300Z,1.70
2018-07-01T00:39:21.784Z,1.67
2018-07-01T00:39:54.914Z,1.65
2018-07-01T00:40:28.023Z,2.10
2018-07-01T00:41:01.339Z,1.60
2018-07-01T00:41:34.505Z,2.12
2018-07-01T00:42:07.787Z,1.62
2018-07-01T00:42:41.156Z,2.00
2018-07-01T00:43:14.244Z,1.95
2018-07-01T00:43:47.452Z,1.98
2018-07-01T00:44:20.704Z,1.90
2018-07-01T00:44:53.855Z,2.30
2018-07-01T00:45:26.932Z,2.35
2018-07-01T00:46:00.105Z,1.80
2018-07-01T00:46:33.452Z,1.70
2018-07-01T00:47:06.569Z,2.55
2018-07-01T00:47:39.672Z,1.60
2018-07-01T00:48:12.795Z,2.37
2018-07-01T00:48:46.112Z,1.90
2018-07-01T00:49:19.289Z,2.35
2018-07-01T00:49:52.419Z,2.00
2018-07-01T00:50:25.778Z,2.30
2018-07-01T00:50:58.902Z,2.08
2018-07-01T00:51:32.018Z,2.30
2018-07-01T00:52:05.130Z,2.35
2018-07-01T00:52:38.317Z,2.30
2018-07-01T00:53:11.406Z,2.50
2018-07-01T00:53:44.675Z,1.87
2018-07-01T00:54:17.883Z,2.15
2018-07-01T00:54:51.195Z,1.82
2018-07-01T00:55:24.295Z,1.60
2018-07-01T00:55:57.668Z,1.77
2018-07-01T00:56:30.779Z,2.00
2018-07-01T00:57:04.732Z,2.00
2018-07-01T00:57:38.189Z,1.95
2018-07-01T00:58:11.384Z,2.10
2018-07-01T00:58:44.499Z,1.98
2018-07-01T00:59:17.738Z,1.90
2018-07-01T00:59:50.924Z,1.80
2018-07-01T01:00:29.422Z,2.02
2018-07-01T01:01:02.557Z,1.90
2018-07-01T01:01:35.780Z,1.87
2018-07-01T01:02:08.977Z,1.57
2018-07-01T01:02:42.084Z,2.02
2018-07-01T01:03:15.891Z,2.02
2018-07-01T01:03:48.977Z,1.85
2018-07-01T01:04:22.076Z,2.10
2018-07-01T01:04:55.397Z,1.75
2018-07-01T01:05:28.779Z,2.30
2018-07-01T01:06:02.241Z,1.92
2018-07-01T01:06:35.426Z,2.00
2018-07-01T01:07:08.544Z,1.75
2018-07-01T01:07:41.872Z,1.52
2018-07-01T01:08:15.007Z,1.55
2018-07-01T01:08:48.141Z,1.70
2018-07-01T01:09:21.424Z,1.67
2018-07-01T01:09:54.538Z,1.65
2018-07-01T01:10:27.920Z,1.77
2018-07-01T01:11:01.035Z,1.85
2018-07-01T01:11:34.151Z,1.80
2018-07-01T01:12:07.232Z,1.60
2018-07-01T01:12:40.491Z,1.80
2018-07-01T01:13:13.900Z,2.08
2018-07-01T01:13:47.015Z,2.10
2018-07-01T01:14:20.271Z,1.70
2018-07-01T01:14:53.411Z,1.87
2018-07-01T01:15:26.680Z,2.20
2018-07-01T01:15:59.754Z,1.67
2018-07-01T01:16:32.832Z,2.37
2018-07-01T01:17:06.212Z,2.15
2018-07-01T01:17:39.392Z,2.55
2018-07-01T01:18:12.575Z,2.00
2018-07-01T01:18:45.692Z,2.50
2018-07-01T01:19:18.925Z,2.50
2018-07-01T01:19:52.046Z,2.83
2018-07-01T01:20:25.672Z,2.92
2018-07-01T01:20:59.246Z,3.00
2018-07-01T01:21:32.579Z,2.72
2018-07-01T01:22:05.693Z,1.70
2018-07-01T01:22:38.835Z,1.85
2018-07-01T01:23:11.920Z,1.62
2018-07-01T01:23:44.970Z,1.80
2018-07-01T01:24:18.053Z,1.80
2018-07-01T01:24:51.212Z,1.98
2018-07-01T01:25:24.367Z,1.40
2018-07-01T01:25:57.684Z,1.90
2018-07-01T01:26:31.688Z,1.52
2018-07-01T01:27:04.960Z,1.60
2018-07-01T01:27:38.141Z,1.98
2018-07-01T01:28:11.227Z,1.90
2018-07-01T01:28:44.416Z,1.90
2018-07-01T01:29:17.507Z,1.70
2018-07-01T01:29:50.600Z,1.80
2018-07-01T01:30:23.710Z,2.33
2018-07-01T01:30:56.833Z,3.08
2018-07-01T01:31:30.397Z,3.25
2018-07-01T01:32:03.549Z,1.50
2018-07-01T01:32:37.084Z,1.80
2018-07-01T01:33:10.600Z,1.80
2018-07-01T01:33:44.144Z,1.77
2018-07-01T01:34:17.648Z,2.47
2018-07-01T01:34:50.825Z,1.98
2018-07-01T01:35:24.435Z,2.30
2018-07-01T01:35:57.736Z,1.52
2018-07-01T01:36:33.059Z,1.85
2018-07-01T01:37:06.206Z,1.92
2018-07-01T01:37:39.698Z,2.00
2018-07-01T01:38:12.861Z,1.45
2018-07-01T01:38:47.274Z,1.87
2018-07-01T01:39:30.386Z,1.95
2018-07-01T01:40:04.082Z,1.85
2018-07-01T01:42:43.989Z,1.70
2018-07-01T01:43:23.451Z,2.08
2018-07-01T01:45:05.231Z,2.00
2018-07-01T01:45:43.860Z,2.20
2018-07-01T01:46:31.515Z,2.37
2018-07-01T01:47:11.382Z,2.58
2018-07-01T01:47:49.216Z,2.65
2018-07-01T01:48:33.334Z,2.27
2018-07-01T01:49:11.834Z,2.05
2018-07-01T01:49:48.079Z,2.50
2018-07-01T01:50:26.176Z,2.70
2018-07-01T01:51:03.681Z,2.20
2018-07-01T01:51:45.517Z,2.10
2018-07-01T01:52:23.831Z,2.20
2018-07-01T01:53:04.715Z,1.95
2018-07-01T01:53:45.544Z,1.85
2018-07-01T01:54:26.711Z,1.55
2018-07-01T01:55:10.641Z,1.80
2018-07-01T01:55:48.118Z,1.70
2018-07-01T01:56:26.612Z,1.47
2018-07-01T01:57:06.771Z,1.52
2018-07-01T01:57:46.119Z,1.57
2018-07-01T01:58:26.351Z,1.42
2018-07-01T01:59:03.534Z,1.40
2018-07-01T01:59:43.447Z,1.77
2018-07-01T02:00:27.904Z,1.90
2018-07-01T02:01:05.080Z,1.92
2018-07-01T02:01:42.656Z,1.50
2018-07-01T02:02:21.066Z,1.70
2018-07-01T02:03:06.826Z,1.80
2018-07-01T02:03:48.915Z,2.25
2018-07-01T02:04:27.023Z,1.90
2018-07-01T02:05:04.796Z,4.28
2018-07-01T02:05:44.654Z,3.83
2018-07-01T02:06:25.591Z,5.85
2018-07-01T02:07:01.961Z,5.65
2018-07-01T02:07:47.522Z,2.55
2018-07-01T02:08:30.008Z,1.80
2018-07-01T02:09:07.731Z,3.20
2018-07-01T02:09:40.975Z,4.15
2018-07-01T02:10:14.166Z,3.02
2018-07-01T02:10:47.354Z,2.30
2018-07-01T02:11:20.895Z,2.12
2018-07-01T02:11:55.219Z,1.50
2018-07-01T02:12:28.663Z,1.52
2018-07-01T02:13:01.800Z,1.50
2018-07-01T02:13:36.595Z,1.60
2018-07-01T02:14:15.009Z,3.17
2018-07-01T02:14:54.724Z,11.97
2018-07-01T02:15:34.422Z,10.10
2018-07-01T02:16:17.492Z,5.12
2018-07-01T02:16:54.439Z,6.45
2018-07-01T02:17:31.299Z,3.37
2018-07-01T02:18:05.014Z,1.90
2018-07-01T02:18:38.205Z,2.20
2018-07-01T02:19:11.460Z,1.50
2018-07-01T02:19:44.577Z,1.50
2018-07-01T02:20:19.955Z,1.92
2018-07-01T02:20:53.138Z,1.32
2018-07-01T02:21:26.247Z,1.37
2018-07-01T02:22:01.665Z,1.40
2018-07-01T02:22:41.100Z,1.72
2018-07-01T02:23:19.364Z,1.42
2018-07-01T02:23:55.299Z,1.47
2018-07-01T02:24:36.260Z,2.02
2018-07-01T02:25:15.811Z,1.85
2018-07-01T02:25:48.974Z,1.50
2018-07-01T02:26:22.143Z,1.60
2018-07-01T02:26:55.342Z,1.70
2018-07-01T02:27:28.810Z,1.85
2018-07-01T02:28:02.006Z,1.75
2018-07-01T02:28:35.323Z,1.82
2018-07-01T02:29:08.459Z,2.00
2018-07-01T02:29:41.580Z,1.67
2018-07-01T02:30:14.739Z,1.90
2018-07-01T02:30:48.009Z,1.50
2018-07-01T02:31:21.362Z,2.17
2018-07-01T02:31:54.767Z,1.87
2018-07-01T02:32:28.017Z,2.20
2018-07-01T02:33:01.455Z,1.85
2018-07-01T02:33:34.541Z,1.82
2018-07-01T02:34:07.625Z,2.15
2018-07-01T02:34:41.050Z,1.80
2018-07-01T02:35:14.332Z,1.70
2018-07-01T02:35:47.391Z,1.70
2018-07-01T02:36:20.590Z,1.67
2018-07-01T02:36:54.036Z,1.60
2018-07-01T02:37:27.237Z,1.77
2018-07-01T02:38:00.365Z,1.92
2018-07-01T02:38:33.580Z,1.62
2018-07-01T02:39:07.961Z,1.60
2018-07-01T02:39:41.093Z,1.55
2018-07-01T02:40:14.378Z,1.80
2018-07-01T02:40:47.780Z,1.80
2018-07-01T02:41:21.340Z,1.80
2018-07-01T02:41:54.452Z,2.50
2018-07-01T02:42:27.680Z,2.10
2018-07-01T02:43:00.766Z,2.00
2018-07-01T02:43:33.872Z,1.90
2018-07-01T02:44:07.215Z,1.82
2018-07-01T02:44:40.707Z,1.90
2018-07-01T02:45:13.817Z,1.77
2018-07-01T02:45:47.019Z,1.45
2018-07-01T02:46:20.248Z,1.65
2018-07-01T02:46:53.431Z,1.85
2018-07-01T02:47:26.537Z,1.75
2018-07-01T02:47:59.631Z,1.65
2018-07-01T02:48:32.704Z,1.60
2018-07-01T02:49:05.930Z,1.90
2018-07-01T02:49:39.340Z,1.40
2018-07-01T02:50:12.462Z,1.57
2018-07-01T02:50:45.573Z,1.35
2018-07-01T02:51:18.680Z,1.40
2018-07-01T02:51:51.772Z,1.32
2018-07-01T02:52:25.333Z,1.45
2018-07-01T02:52:58.678Z,1.70
2018-07-01T02:53:31.924Z,1.70
2018-07-01T02:54:05.162Z,1.80
2018-07-01T02:54:38.272Z,1.52
2018-07-01T02:55:11.406Z,1.50
2018-07-01T02:55:44.719Z,1.75
2018-07-01T02:56:18.324Z,1.60
2018-07-01T02:56:51.475Z,1.52
2018-07-01T02:57:24.754Z,1.80
2018-07-01T02:57:57.944Z,1.80
2018-07-01T02:58:31.123Z,1.70
2018-07-01T02:59:04.708Z,1.62
2018-07-01T02:59:37.835Z,1.42
2018-07-01T03:00:10.961Z,1.65
2018-07-01T03:00:44.083Z,2.08
2018-07-01T03:01:17.309Z,2.33
2018-07-01T03:01:51.183Z,2.20
2018-07-01T03:02:24.324Z,1.70
2018-07-01T03:02:57.424Z,1.60
2018-07-01T03:03:31.221Z,2.08
2018-07-01T03:04:04.302Z,2.10
2018-07-01T03:04:37.605Z,1.85
2018-07-01T03:05:10.774Z,1.98
2018-07-01T03:05:43.888Z,1.52
2018-07-01T03:06:17.107Z,1.55
2018-07-01T03:06:50.430Z,1.60
2018-07-01T03:07:23.811Z,1.90
2018-07-01T03:07:56.956Z,2.12
2018-07-01T03:08:30.165Z,2.62
2018-07-01T03:09:03.354Z,2.40
2018-07-01T03:09:36.691Z,2.60
2018-07-01T03:10:09.991Z,2.27
2018-07-01T03:10:43.098Z,1.95
2018-07-01T03:11:16.264Z,2.30
2018-07-01T03:11:49.347Z,2.17
2018-07-01T03:12:22.475Z,1.87
2018-07-01T03:12:55.611Z,2.58
2018-07-01T03:13:28.726Z,2.00
2018-07-01T03:14:01.803Z,2.47
2018-07-01T03:14:35.391Z,2.10
2018-07-01T03:15:08.560Z,2.47
2018-07-01T03:15:41.809Z,2.40
2018-07-01T03:16:14.972Z,2.45
2018-07-01T03:16:48.142Z,2.47
2018-07-01T03:17:21.293Z,2.20
2018-07-01T03:17:55.024Z,2.45
2018-07-01T03:18:28.397Z,2.47
2018-07-01T03:19:01.771Z,2.42
2018-07-01T03:19:34.937Z,2.25
2018-07-01T03:20:08.550Z,2.40
2018-07-01T03:20:41.825Z,2.52
2018-07-01T03:21:15.187Z,2.05
2018-07-01T03:21:48.570Z,2.45
2018-07-01T03:22:21.772Z,2.08
2018-07-01T03:22:54.923Z,1.98
2018-07-01T03:23:28.430Z,1.85
2018-07-01T03:24:01.524Z,1.70
2018-07-01T03:24:35.074Z,2.00
2018-07-01T03:25:08.253Z,1.80
2018-07-01T03:25:41.397Z,1.90
2018-07-01T03:26:14.631Z,2.05
2018-07-01T03:26:47.788Z,1.67
2018-07-01T03:27:20.933Z,2.02
2018-07-01T03:27:54.017Z,1.30
2018-07-01T03:28:27.110Z,1.72
2018-07-01T03:29:00.217Z,1.90
2018-07-01T03:29:33.383Z,2.00
2018-07-01T03:30:06.504Z,1.62
2018-07-01T03:30:40.052Z,1.90
2018-07-01T03:31:13.175Z,2.20
2018-07-01T03:31:46.401Z,2.55
2018-07-01T03:32:19.584Z,2.08
2018-07-01T03:32:52.723Z,2.15
2018-07-01T03:33:26.860Z,1.67
2018-07-01T03:34:00.047Z,2.15
2018-07-01T03:34:33.143Z,2.05
2018-07-01T03:35:06.270Z,1.90
2018-07-01T03:35:39.367Z,1.57
2018-07-01T03:36:12.458Z,1.90
2018-07-01T03:36:45.574Z,2.12
2018-07-01T03:37:18.693Z,1.75
2018-07-01T03:37:51.977Z,2.15
2018-07-01T03:38:25.076Z,1.90
2018-07-01T03:38:58.332Z,2.12
2018-07-01T03:39:33.011Z,1.75
2018-07-01T03:40:06.531Z,2.08
2018-07-01T03:40:39.721Z,1.50
2018-07-01T03:41:12.840Z,1.47
2018-07-01T03:41:45.961Z,1.85
2018-07-01T03:42:19.242Z,1.85
2018-07-01T03:42:52.399Z,2.00
2018-07-01T03:43:25.609Z,2.37
2018-07-01T03:43:58.730Z,2.05
2018-07-01T03:44:31.985Z,1.80
2018-07-01T03:45:05.136Z,1.90
2018-07-01T03:45:38.635Z,1.90
2018-07-01T03:46:11.716Z,2.37
2018-07-01T03:46:44.820Z,1.87
2018-07-01T03:47:18.161Z,2.00
2018-07-01T03:47:51.336Z,2.02
2018-07-01T03:48:25.120Z,2.35
2018-07-01T03:48:58.239Z,2.00
2018-07-01T03:49:31.508Z,1.57
2018-07-01T03:50:04.684Z,1.82
2018-07-01T03:50:37.791Z,2.70
2018-07-01T03:51:10.976Z,2.22
2018-07-01T03:51:44.146Z,2.67
2018-07-01T03:52:17.368Z,3.00
2018-07-01T03:52:50.454Z,2.10
2018-07-01T03:53:23.541Z,2.87
2018-07-01T03:53:56.616Z,2.33
2018-07-01T03:54:30.182Z,2.20
2018-07-01T03:55:03.284Z,1.82
2018-07-01T03:55:36.453Z,1.60
2018-07-01T03:56:09.671Z,1.80
2018-07-01T03:56:42.792Z,1.70
2018-07-01T03:57:16.082Z,1.70
2018-07-01T03:57:49.287Z,1.75
2018-07-01T03:58:22.346Z,1.75
2018-07-01T03:58:55.523Z,1.50
2018-07-01T03:59:28.692Z,1.92
2018-07-01T04:00:01.884Z,2.20
2018-07-01T04:00:35.036Z,1.55
2018-07-01T04:01:08.362Z,1.90
2018-07-01T04:01:41.475Z,1.70
2018-07-01T04:02:14.591Z,1.40
2018-07-01T04:02:47.784Z,1.50
2018-07-01T04:03:20.882Z,1.90
2018-07-01T04:03:54.126Z,1.70
2018-07-01T04:04:27.323Z,2.25
2018-07-01T04:05:00.484Z,2.05
2018-07-01T04:05:33.557Z,1.60
2018-07-01T04:06:06.695Z,1.50
2018-07-01T04:06:40.037Z,1.75
2018-07-01T04:07:13.167Z,1.80
2018-07-01T04:07:46.252Z,1.47
2018-07-01T04:08:19.374Z,1.50
2018-07-01T04:08:52.727Z,1.72
2018-07-01T04:09:25.940Z,1.80
2018-07-01T04:09:59.213Z,1.65
2018-07-01T04:10:32.320Z,1.62
2018-07-01T04:11:05.683Z,1.52
2018-07-01T04:11:38.789Z,2.67
2018-07-01T04:12:12.061Z,1.90
2018-07-01T04:12:45.242Z,1.55
2018-07-01T04:13:18.340Z,1.95
2018-07-01T04:13:51.983Z,1.50
2018-07-01T04:14:25.114Z,2.00
2018-07-01T04:14:58.298Z,2.20
2018-07-01T04:15:31.394Z,1.62
2018-07-01T04:16:04.681Z,1.75
2018-07-01T04:16:38.488Z,1.87
2018-07-01T04:17:11.647Z,1.60
2018-07-01T04:17:44.843Z,1.70
2018-07-01T04:18:17.982Z,1.82
2018-07-01T04:18:51.187Z,1.60
2018-07-01T04:19:31.869Z,1.55
2018-07-01T04:20:05.458Z,1.80
2018-07-01T04:20:38.698Z,1.67
2018-07-01T04:21:11.865Z,1.85
2018-07-01T04:21:45.384Z,1.70
2018-07-01T04:22:18.500Z,1.82
2018-07-01T04:22:52.101Z,1.82
2018-07-01T04:23:25.225Z,1.87
2018-07-01T04:23:58.860Z,1.45
2018-07-01T04:24:32.500Z,1.42
2018-07-01T04:25:05.922Z,1.60
2018-07-01T04:25:39.177Z,1.30
2018-07-01T04:26:12.339Z,1.65
2018-07-01T04:26:45.452Z,1.80
2018-07-01T04:27:18.538Z,1.52
2018-07-01T04:27:51.866Z,1.87
2018-07-01T04:28:24.975Z,1.72
2018-07-01T04:28:58.242Z,1.50
2018-07-01T04:29:31.406Z,1.37
2018-07-01T04:30:04.763Z,1.65
2018-07-01T04:30:37.875Z,1.87
2018-07-01T04:31:11.093Z,2.10
2018-07-01T04:31:44.167Z,2.67
2018-07-01T04:32:17.295Z,1.32
2018-07-01T04:32:50.416Z,1.50
2018-07-01T04:33:23.857Z,1.60
2018-07-01T04:33:56.995Z,1.95
2018-07-01T04:34:30.177Z,1.55
2018-07-01T04:35:03.384Z,1.60
2018-07-01T04:35:36.621Z,1.45
2018-07-01T04:36:09.907Z,1.70
2018-07-01T04:36:43.334Z,1.60
2018-07-01T04:37:16.515Z,1.62
2018-07-01T04:37:49.732Z,1.87
2018-07-01T04:38:23.824Z,1.82
2018-07-01T04:38:57.267Z,1.52
2018-07-01T04:39:30.490Z,1.50
2018-07-01T04:40:03.857Z,1.52
2018-07-01T04:40:37.569Z,1.80
2018-07-01T04:41:10.925Z,2.40
2018-07-01T04:41:44.087Z,1.50
2018-07-01T04:42:17.264Z,1.50
2018-07-01T04:42:50.686Z,1.60
2018-07-01T04:43:24.051Z,1.50
2018-07-01T04:43:57.154Z,1.65
2018-07-01T04:44:30.283Z,1.85
2018-07-01T04:45:03.424Z,1.47
2018-07-01T04:45:36.534Z,1.90
2018-07-01T04:46:09.689Z,2.02
2018-07-01T04:46:42.784Z,1.67
2018-07-01T04:47:15.903Z,1.70
2018-07-01T04:47:49.294Z,1.70
2018-07-01T04:48:22.383Z,1.82
2018-07-01T04:48:55.739Z,1.65
2018-07-01T04:49:29.428Z,2.20
2018-07-01T04:50:02.568Z,1.65
2018-07-01T04:50:35.658Z,1.57
2018-07-01T04:51:08.808Z,1.47
2018-07-01T04:51:41.924Z,1.60
2018-07-01T04:52:15.121Z,1.40
2018-07-01T04:52:48.270Z,1.75
2018-07-01T04:53:21.431Z,1.60
2018-07-01T04:53:54.551Z,1.65
2018-07-01T04:54:27.833Z,1.60
2018-07-01T04:55:01.622Z,1.77
2018-07-01T04:55:34.905Z,1.98
2018-07-01T04:56:08.120Z,1.60
2018-07-01T04:56:41.485Z,1.57
2018-07-01T04:57:14.613Z,1.50
2018-07-01T04:57:47.819Z,2.35
2018-07-01T04:58:20.926Z,2.40
2018-07-01T04:58:54.047Z,2.50
2018-07-01T04:59:27.154Z,2.25
2018-07-01T05:00:00.551Z,1.85
2018-07-01T05:00:33.699Z,1.80
2018-07-01T05:01:07.188Z,1.87
2018-07-01T05:01:40.287Z,1.37
2018-07-01T05:02:13.557Z,1.85
2018-07-01T05:02:47.016Z,1.80
2018-07-01T05:03:20.512Z,1.75
2018-07-01T05:03:53.920Z,1.90
2018-07-01T05:04:26.974Z,1.60
2018-07-01T05:05:00.048Z,1.62
2018-07-01T05:05:33.221Z,2.42
2018-07-01T05:06:06.405Z,2.40
2018-07-01T05:06:39.571Z,1.92
2018-07-01T05:07:12.778Z,1.90
2018-07-01T05:07:46.059Z,2.05
2018-07-01T05:08:19.142Z,1.90
2018-07-01T05:08:52.297Z,1.87
2018-07-01T05:09:25.575Z,1.72
2018-07-01T05:09:58.957Z,1.95
2018-07-01T05:10:32.147Z,1.80
2018-07-01T05:11:05.225Z,1.82
2018-07-01T05:11:38.805Z,1.60
2018-07-01T05:12:11.908Z,1.42
2018-07-01T05:12:45.043Z,1.70
2018-07-01T05:13:18.968Z,1.80
2018-07-01T05:13:52.076Z,1.37
2018-07-01T05:14:25.317Z,1.65
2018-07-01T05:14:58.359Z,1.45
2018-07-01T05:15:32.441Z,1.42
2018-07-01T05:16:05.772Z,1.57
2018-07-01T05:16:39.853Z,1.60
2018-07-01T05:17:13.078Z,1.77
2018-07-01T05:17:46.221Z,2.37
2018-07-01T05:18:19.428Z,2.30
2018-07-01T05:18:52.577Z,2.30
2018-07-01T05:19:25.670Z,2.50
2018-07-01T05:19:58.950Z,2.12
2018-07-01T05:20:32.145Z,1.60
2018-07-01T05:21:05.597Z,1.80
2018-07-01T05:21:38.731Z,1.67
2018-07-01T05:22:11.876Z,1.80
2018-07-01T05:22:44.980Z,1.98
2018-07-01T05:23:18.319Z,1.92
2018-07-01T05:23:51.434Z,1.98
2018-07-01T05:24:24.667Z,2.08
2018-07-01T05:24:57.846Z,1.65
2018-07-01T05:25:31.341Z,1.30
2018-07-01T05:26:04.636Z,1.75
2018-07-01T05:26:37.943Z,1.40
2018-07-01T05:27:11.065Z,1.80
2018-07-01T05:27:44.351Z,1.85
2018-07-01T05:28:17.639Z,1.40
2018-07-01T05:28:51.370Z,1.30
2018-07-01T05:29:25.203Z,1.45
2018-07-01T05:29:58.318Z,1.27
2018-07-01T05:30:31.503Z,1.60
2018-07-01T05:31:04.697Z,1.50
2018-07-01T05:31:37.812Z,1.40
2018-07-01T05:32:11.134Z,1.42
2018-07-01T05:32:44.266Z,1.77
2018-07-01T05:33:17.373Z,1.50
2018-07-01T05:33:50.473Z,1.55
2018-07-01T05:34:24.033Z,1.30
2018-07-01T05:34:57.216Z,1.50
2018-07-01T05:35:30.363Z,1.40
2018-07-01T05:36:03.505Z,2.35
2018-07-01T05:36:36.676Z,2.12
2018-07-01T05:37:09.922Z,1.17
2018-07-01T05:37:43.050Z,1.75
2018-07-01T05:38:16.809Z,1.80
2018-07-01T05:38:49.880Z,1.42
2018-07-01T05:39:22.979Z,1.47
2018-07-01T05:39:56.077Z,1.47
2018-07-01T05:40:29.726Z,1.50
2018-07-01T05:41:02.859Z,1.40
2018-07-01T05:41:35.977Z,1.30
2018-07-01T05:42:09.093Z,1.30
2018-07-01T05:42:42.251Z,1.40
2018-07-01T05:43:15.365Z,1.60
2018-07-01T05:43:48.478Z,1.65
2018-07-01T05:44:21.596Z,1.65
2018-07-01T05:44:54.717Z,1.27
2018-07-01T05:45:27.847Z,1.70
2018-07-01T05:46:00.927Z,1.40
2018-07-01T05:46:34.040Z,1.40
2018-07-01T05:47:07.178Z,1.52
2018-07-01T05:47:40.638Z,1.70
2018-07-01T05:48:14.707Z,1.80
2018-07-01T05:48:47.804Z,1.50
2018-07-01T05:49:20.929Z,1.92
2018-07-01T05:49:54.488Z,1.50
2018-07-01T05:50:27.752Z,1.67
2018-07-01T05:51:00.939Z,1.52
2018-07-01T05:51:34.097Z,1.37
2018-07-01T05:52:07.314Z,1.40
2018-07-01T05:52:40.540Z,1.92
2018-07-01T05:53:13.653Z,1.40
2018-07-01T05:53:46.775Z,1.62
2018-07-01T05:54:19.902Z,1.90
2018-07-01T05:54:53.231Z,2.40
2018-07-01T05:55:26.347Z,1.37
2018-07-01T05:55:59.527Z,1.30
2018-07-01T05:56:32.833Z,1.30
2018-07-01T05:57:05.993Z,1.65
2018-07-01T05:57:39.071Z,1.40
2018-07-01T05:58:12.267Z,1.42
2018-07-01T05:58:45.398Z,1.90
2018-07-01T05:59:18.610Z,1.67
2018-07-01T05:59:51.769Z,2.00
2018-07-01T06:00:24.892Z,2.42
2018-07-01T06:00:58.265Z,2.30
2018-07-01T06:01:31.379Z,2.10
2018-07-01T06:02:04.527Z,1.60
2018-07-01T06:02:38.001Z,1.90
2018-07-01T06:03:11.160Z,1.40
2018-07-01T06:03:44.356Z,1.20
2018-07-01T06:04:17.536Z,1.62
2018-07-01T06:04:50.695Z,1.22
2018-07-01T06:05:23.996Z,1.35
2018-07-01T06:05:57.121Z,1.05
2018-07-01T06:06:30.245Z,1.40
2018-07-01T06:07:03.394Z,1.20
2018-07-01T06:07:36.601Z,1.20
2018-07-01T06:08:09.710Z,1.32
2018-07-01T06:08:43.029Z,1.20
2018-07-01T06:09:16.140Z,1.40
2018-07-01T06:09:49.310Z,1.60
2018-07-01T06:10:22.393Z,1.30
2018-07-01T06:10:55.787Z,1.45
2018-07-01T06:11:28.889Z,1.57
2018-07-01T06:12:02.060Z,1.32
2018-07-01T06:12:35.159Z,1.42
2018-07-01T06:13:08.284Z,1.37
2018-07-01T06:13:41.461Z,1.30
2018-07-01T06:14:14.739Z,1.50
2018-07-01T06:14:47.825Z,1.50
2018-07-01T06:15:20.912Z,1.27
2018-07-01T06:15:54.220Z,1.57
2018-07-01T06:16:27.508Z,1.80
2018-07-01T06:17:00.619Z,1.70
2018-07-01T06:17:33.790Z,1.40
2018-07-01T06:18:06.892Z,1.30
2018-07-01T06:18:39.950Z,1.22
2018-07-01T06:19:13.041Z,1.35
2018-07-01T06:19:46.536Z,1.50
2018-07-01T06:20:19.695Z,1.47
2018-07-01T06:20:52.849Z,1.87
2018-07-01T06:21:25.967Z,1.77
2018-07-01T06:21:59.348Z,1.90
2018-07-01T06:22:32.432Z,2.00
2018-07-01T06:23:05.729Z,1.55
2018-07-01T06:23:38.840Z,1.60
2018-07-01T06:24:12.563Z,1.77
2018-07-01T06:24:45.688Z,1.45
2018-07-01T06:25:19.033Z,1.55
2018-07-01T06:25:52.406Z,1.50
2018-07-01T06:26:25.571Z,1.22
2018-07-01T06:26:59.064Z,1.30
2018-07-01T06:27:32.266Z,1.25
2018-07-01T06:28:05.681Z,1.17
2018-07-01T06:28:39.270Z,1.60
2018-07-01T06:29:12.382Z,1.10
2018-07-01T06:29:45.885Z,1.30
2018-07-01T06:30:19.051Z,1.22
2018-07-01T06:30:52.179Z,1.22
2018-07-01T06:31:25.276Z,1.35
2018-07-01T06:31:58.422Z,1.35
2018-07-01T06:32:31.516Z,1.45
2018-07-01T06:33:05.191Z,1.50
2018-07-01T06:33:38.375Z,1.50
2018-07-01T06:34:11.635Z,1.70
2018-07-01T06:34:44.726Z,1.52
2018-07-01T06:35:18.095Z,1.45
2018-07-01T06:35:51.415Z,1.80
2018-07-01T06:36:24.665Z,1.90
2018-07-01T06:36:57.747Z,1.50
2018-07-01T06:37:31.120Z,1.70
2018-07-01T06:38:04.412Z,1.30
2018-07-01T06:38:37.652Z,1.60
2018-07-01T06:39:11.450Z,1.20
2018-07-01T06:39:45.266Z,1.40
2018-07-01T06:40:18.448Z,1.87
2018-07-01T06:40:51.552Z,1.40
2018-07-01T06:41:24.807Z,1.30
2018-07-01T06:41:58.063Z,1.42
2018-07-01T06:42:31.625Z,1.50
2018-07-01T06:43:05.265Z,1.42
2018-07-01T06:43:38.424Z,1.62
2018-07-01T06:44:11.591Z,1.30
2018-07-01T06:44:44.711Z,1.40
2018-07-01T06:45:18.071Z,1.00
2018-07-01T06:45:51.425Z,1.60
2018-07-01T06:46:24.620Z,1.40
2018-07-01T06:46:57.917Z,2.00
2018-07-01T06:47:31.402Z,1.95
2018-07-01T06:48:05.040Z,1.72
2018-07-01T06:48:38.168Z,1.82
2018-07-01T06:49:11.370Z,1.50
2018-07-01T06:49:44.489Z,1.30
2018-07-01T06:50:17.777Z,1.15
2018-07-01T06:50:51.363Z,1.50
2018-07-01T06:51:25.112Z,1.42
2018-07-01T06:51:58.326Z,1.50
2018-07-01T06:52:31.740Z,1.50
2018-07-01T06:53:05.242Z,1.15
2018-07-01T06:53:38.382Z,1.20
2018-07-01T06:54:11.563Z,1.27
2018-07-01T06:54:44.675Z,1.52
2018-07-01T06:55:17.799Z,1.60
2018-07-01T06:55:51.233Z,1.40
2018-07-01T06:56:24.350Z,1.10
2018-07-01T06:56:57.581Z,1.30
2018-07-01T06:57:30.683Z,1.30
2018-07-01T06:58:04.101Z,1.32
2018-07-01T06:58:37.210Z,1.67
2018-07-01T06:59:10.501Z,1.67
2018-07-01T06:59:43.619Z,1.52
2018-07-01T07:00:16.842Z,1.65
2018-07-01T07:00:50.487Z,1.55
2018-07-01T07:01:23.831Z,1.30
2018-07-01T07:01:57.258Z,2.17
2018-07-01T07:02:30.534Z,1.20
2018-07-01T07:03:03.652Z,1.30
2018-07-01T07:03:36.829Z,1.30
2018-07-01T07:04:09.958Z,1.22
2018-07-01T07:04:43.255Z,1.20
2018-07-01T07:05:16.672Z,1.90
2018-07-01T07:05:50.083Z,1.35
2018-07-01T07:06:23.351Z,1.20
2018-07-01T07:06:56.450Z,1.45
2018-07-01T07:07:29.562Z,1.45
2018-07-01T07:08:02.913Z,1.40
2018-07-01T07:08:36.408Z,1.55
2018-07-01T07:09:11.392Z,2.00
2018-07-01T07:09:44.521Z,1.80
2018-07-01T07:10:17.660Z,1.87
2018-07-01T07:10:50.785Z,1.72
2018-07-01T07:11:23.919Z,1.65
2018-07-01T07:11:57.321Z,1.55
2018-07-01T07:12:30.448Z,1.70
2018-07-01T07:13:03.570Z,2.30
2018-07-01T07:13:36.709Z,2.10
2018-07-01T07:14:09.878Z,1.75
2018-07-01T07:14:43.201Z,1.45
2018-07-01T07:15:16.672Z,1.40
2018-07-01T07:15:49.787Z,1.32
2018-07-01T07:16:23.147Z,1.10
2018-07-01T07:16:56.265Z,1.20
2018-07-01T07:17:29.399Z,1.40
2018-07-01T07:18:02.613Z,1.10
2018-07-01T07:18:35.719Z,1.22
2018-07-01T07:19:08.880Z,1.50
2018-07-01T07:19:42.005Z,1.30
2018-07-01T07:20:15.377Z,2.00
2018-07-01T07:20:48.763Z,1.70
2018-07-01T07:21:21.872Z,1.60
2018-07-01T07:21:55.015Z,1.80
2018-07-01T07:22:28.135Z,1.70
2018-07-01T07:23:01.495Z,1.70
2018-07-01T07:23:34.889Z,1.40
2018-07-01T07:24:08.144Z,1.50
2018-07-01T07:24:41.542Z,1.32
2018-07-01T07:25:15.254Z,1.57
2018-07-01T07:25:48.584Z,1.25
2018-07-01T07:26:21.819Z,1.37
2018-07-01T07:26:54.945Z,1.50
2018-07-01T07:27:28.059Z,1.37
2018-07-01T07:28:01.196Z,1.12
2018-07-01T07:28:34.471Z,1.40
2018-07-01T07:29:07.693Z,1.57
2018-07-01T07:29:41.142Z,1.60
2018-07-01T07:30:14.258Z,1.30
2018-07-01T07:30:47.490Z,1.90
2018-07-01T07:31:20.587Z,1.30